createdAt,value
2023-12-30T07:08:24.309Z,5.00
2023-12-30T07:10:53.599Z,5.04
2023-12-30T07:13:22.040Z,5.08
2023-12-30T07:15:52.740Z,5.10
2023-12-30T07:18:22.873Z,5.12
2023-12-30T07:20:51.679Z,5.13
2023-12-30T07:23:21.547Z,5.15
2023-12-30T07:25:53.097Z,5.17
2023-12-30T07:28:22.211Z,5.19
2023-12-30T07:30:52.201Z,5.20
2023-12-30T07:33:21.040Z,5.19
2023-12-30T07:35:50.274Z,5.20
2023-12-30T07:38:19.405Z,5.20
2023-12-30T07:40:48.995Z,5.20
2023-12-30T07:43:18.655Z,5.20
2023-12-30T07:45:49.259Z,5.21
2023-12-30T07:48:17.606Z,5.20
2023-12-30T07:50:46.878Z,5.17
2023-12-30T07:53:18.838Z,5.15
2023-12-30T07:55:50.636Z,5.16
2023-12-30T07:58:19.927Z,5.26
2023-12-30T08:00:48.566Z,5.39
2023-12-30T08:03:17.244Z,5.58
2023-12-30T08:05:46.094Z,5.84
2023-12-30T08:08:15.702Z,6.06
2023-12-30T08:10:44.222Z,6.25
2023-12-30T08:13:13.936Z,6.37
2023-12-30T08:15:41.976Z,6.42
2023-12-30T08:18:11.167Z,6.41
2023-12-30T08:20:39.632Z,6.37
2023-12-30T08:23:08.108Z,6.34
2023-12-30T08:25:36.080Z,6.28
2023-12-30T08:28:04.781Z,6.21
2023-12-30T08:30:34.849Z,6.12
2023-12-30T08:33:09.857Z,6.03
2023-12-30T08:35:41.601Z,5.93
2023-12-30T08:38:12.338Z,5.86
2023-12-30T08:40:40.788Z,5.79
2023-12-30T08:43:12.803Z,5.71
2023-12-30T08:45:43.092Z,5.65
2023-12-30T08:48:11.341Z,5.60
2023-12-30T08:50:39.650Z,5.57
2023-12-30T08:53:09.582Z,5.56
2023-12-30T08:55:40.043Z,5.55
2023-12-30T08:58:09.543Z,5.53
2023-12-30T09:00:38.933Z,5.54
2023-12-30T09:03:06.929Z,5.51
2023-12-30T09:05:35.557Z,5.49
2023-12-30T09:08:05.711Z,5.50
2023-12-30T09:10:36.126Z,5.50
2023-12-30T09:13:05.521Z,5.54
2023-12-30T09:15:35.728Z,5.56
2023-12-30T09:18:06.584Z,5.57
2023-12-30T09:20:34.456Z,5.58
2023-12-30T09:23:02.745Z,5.58
2023-12-30T09:25:31.090Z,5.62
2023-12-30T09:28:00.056Z,5.65
2023-12-30T09:30:28.371Z,5.71
2023-12-30T09:32:56.217Z,5.74
2023-12-30T09:35:26.154Z,5.81
2023-12-30T09:37:53.833Z,5.87
2023-12-30T09:40:21.608Z,5.92
2023-12-30T09:42:52.792Z,5.95
2023-12-30T09:45:23.387Z,5.98
2023-12-30T09:47:55.969Z,5.96
2023-12-30T09:50:23.818Z,5.93
2023-12-30T09:52:51.559Z,5.91
2023-12-30T09:59:03.178Z,5.95
2023-12-30T10:01:37.176Z,5.97
2023-12-30T10:04:08.748Z,6.07
2023-12-30T10:06:39.247Z,6.20
2023-12-30T10:09:07.758Z,6.36
2023-12-30T10:11:38.571Z,6.50
2023-12-30T10:14:06.872Z,6.72
2023-12-30T10:16:37.524Z,6.93
2023-12-30T10:19:12.121Z,7.14
2023-12-30T10:21:41.975Z,7.34
2023-12-30T10:24:11.907Z,7.47
2023-12-30T10:26:44.899Z,7.60
2023-12-30T10:29:13.818Z,7.65
2023-12-30T10:31:43.991Z,7.69
2023-12-30T10:34:12.606Z,7.72
2023-12-30T10:36:40.696Z,7.78
2023-12-30T10:39:16.869Z,7.87
2023-12-30T10:41:46.117Z,7.90
2023-12-30T10:44:14.025Z,7.92
2023-12-30T10:46:52.751Z,8.05
2023-12-30T10:49:26.840Z,8.18
2023-12-30T10:51:56.752Z,8.29
2023-12-30T10:54:38.408Z,8.38
2023-12-30T10:57:12.867Z,8.43
2023-12-30T10:59:44.372Z,8.54
2023-12-30T11:02:14.286Z,8.69
2023-12-30T11:04:44.192Z,8.78
2023-12-30T11:07:17.059Z,8.88
2023-12-30T11:09:45.329Z,9.00
2023-12-30T11:12:14.631Z,9.13
2023-12-30T11:14:42.677Z,9.20
2023-12-30T11:17:11.578Z,9.27
2023-12-30T11:19:41.354Z,9.40
2023-12-30T11:22:09.385Z,9.50
2023-12-30T11:24:44.221Z,9.61
2023-12-30T11:27:12.902Z,9.73
2023-12-30T11:29:43.204Z,9.73
2023-12-30T11:32:21.106Z,9.71
2023-12-30T11:34:50.586Z,9.74
2023-12-30T11:37:20.191Z,9.67
2023-12-30T11:39:51.369Z,9.54
2023-12-30T11:42:27.428Z,9.54
2023-12-30T11:45:04.305Z,9.57
2023-12-30T11:47:32.945Z,9.61
2023-12-30T11:50:11.388Z,9.60
2023-12-30T11:53:05.408Z,9.64
2023-12-30T11:55:34.038Z,9.62
2023-12-30T11:58:04.212Z,9.75
2023-12-30T12:00:32.249Z,9.78
2023-12-30T12:03:00.869Z,9.83
2023-12-30T12:05:30.586Z,10.05
2023-12-30T12:08:00.252Z,10.34
2023-12-30T12:10:30.611Z,10.68
2023-12-30T12:12:59.143Z,10.96
2023-12-30T12:15:31.031Z,11.20
2023-12-30T12:18:02.985Z,11.45
2023-12-30T12:20:38.100Z,11.42
2023-12-30T12:23:06.946Z,11.48
2023-12-30T12:25:37.636Z,11.69
2023-12-30T12:28:24.442Z,11.65
2023-12-30T12:30:52.871Z,11.71
2023-12-30T12:33:21.233Z,11.83
2023-12-30T12:39:19.240Z,12.43
2023-12-30T12:41:48.619Z,12.73
2023-12-30T12:44:17.016Z,12.75
2023-12-30T12:46:45.409Z,12.66
2023-12-30T12:49:15.604Z,12.82
2023-12-30T12:51:46.125Z,12.78
2023-12-30T12:54:15.108Z,12.54
2023-12-30T12:56:46.778Z,12.01
2023-12-30T12:59:15.361Z,11.57
2023-12-30T13:01:44.536Z,11.41
2023-12-30T13:04:15.106Z,11.40
2023-12-30T13:06:44.841Z,11.42
2023-12-30T13:09:36.196Z,11.59
2023-12-30T13:12:07.871Z,12.02
2023-12-30T13:14:36.680Z,12.41
2023-12-30T13:17:14.145Z,12.75
2023-12-30T13:19:43.196Z,12.86
2023-12-30T13:22:13.601Z,13.16
2023-12-30T13:24:41.842Z,13.35
2023-12-30T13:27:11.598Z,13.55
2023-12-30T13:29:40.034Z,13.76
2023-12-30T13:32:10.342Z,13.76
2023-12-30T13:34:41.868Z,13.74
2023-12-30T13:37:12.932Z,13.91
2023-12-30T13:39:43.546Z,14.00
2023-12-30T13:42:15.589Z,13.82
2023-12-30T13:44:45.797Z,13.70
2023-12-30T13:47:52.834Z,13.83
2023-12-30T13:50:28.412Z,13.95
2023-12-30T13:53:03.035Z,13.85
2023-12-30T13:55:34.712Z,13.53
2023-12-30T13:58:06.680Z,13.38
2023-12-30T14:00:41.512Z,13.42
2023-12-30T14:03:10.242Z,13.46
2023-12-30T14:05:46.700Z,13.69
2023-12-30T14:08:38.452Z,13.90
2023-12-30T14:11:09.931Z,14.19
2023-12-30T14:13:38.324Z,14.43
2023-12-30T14:16:07.618Z,14.67
2023-12-30T14:18:36.777Z,14.95
2023-12-30T14:21:07.948Z,15.24
2023-12-30T14:23:37.635Z,15.40
2023-12-30T14:26:06.463Z,15.63
2023-12-30T14:28:36.896Z,15.72
2023-12-30T14:31:05.211Z,15.71
2023-12-30T14:33:36.817Z,15.47
2023-12-30T14:36:06.806Z,15.29
2023-12-30T14:38:34.981Z,15.07
2023-12-30T14:41:03.911Z,14.77
2023-12-30T14:43:33.176Z,14.79
2023-12-30T14:46:08.801Z,14.90
2023-12-30T14:48:39.799Z,15.04
2023-12-30T14:54:40.102Z,15.24
2023-12-30T14:57:09.632Z,15.30
2023-12-30T14:59:39.619Z,15.39
2023-12-30T15:02:08.645Z,15.47
2023-12-30T15:04:38.187Z,15.52
2023-12-30T15:07:10.690Z,15.36
2023-12-30T15:09:38.981Z,14.80
